Time;durP1;ratioP1;P1;durP2;ratioP2;P2;SDS_P1;SDS_P2;PMS_P1;PMS_P2;Temp;Humidity;BMP_temperature;BMP_pressure;BME280_temperature;BME280_humidity;BME280_pressure;Samples;Min_cycle;Max_cycle;Signal;HPM_P1;HPM_P2
2023/03/24 00:01:31;;;;;;;15.57;7.88;;;;;;;;;;8415375;28;20101;-87
2023/03/24 00:05:34;;;;;;;14.32;7.45;;;;;;;;;;8406259;28;20400;-85
2023/03/24 00:09:37;;;;;;;11.20;6.82;;;;;;;;;;8413882;28;20412;-85
2023/03/24 00:13:41;;;;;;;13.73;8.30;;;;;;;;;;8416913;28;20044;-85
2023/03/24 00:17:45;;;;;;;17.55;8.48;;;;;;;;;;8400065;28;20051;-84
2023/03/24 00:21:48;;;;;;;13.07;7.40;;;;;;;;;;8422267;28;20112;-83
2023/03/24 00:26:01;;;;;;;14.15;8.02;;;;;;;;;;8407632;28;20039;-84
2023/03/24 00:30:08;;;;;;;15.95;8.52;;;;;;;;;;8424968;28;20040;-86
2023/03/24 00:34:12;;;;;;;16.20;8.27;;;;;;;;;;8410774;28;20051;-85
2023/03/24 00:38:15;;;;;;;13.55;7.20;;;;;;;;;;8398207;28;20044;-85
2023/03/24 00:42:17;;;;;;;14.50;7.72;;;;;;;;;;8419052;28;20044;-84
2023/03/24 00:46:28;;;;;;;17.83;8.45;;;;;;;;;;8410337;28;20475;-84
2023/03/24 00:50:32;;;;;;;17.13;8.23;;;;;;;;;;8414664;28;20469;-84
2023/03/24 00:54:35;;;;;;;15.73;8.20;;;;;;;;;;8380976;28;20045;-86
2023/03/24 00:58:38;;;;;;;18.17;8.57;;;;;;;;;;8426580;28;20036;-85
2023/03/24 01:02:42;;;;;;;17.33;8.02;;;;;;;;;;8417692;28;20048;-87
2023/03/24 01:06:45;;;;;;;15.65;7.50;;;;;;;;;;8393795;28;20549;-85
2023/03/24 01:10:52;;;;;;;42.45;14.32;;;;;;;;;;8384787;28;20044;-83
2023/03/24 01:14:55;;;;;;;16.60;8.93;;;;;;;;;;8382489;28;20047;-84
2023/03/24 01:19:00;;;;;;;17.60;8.02;;;;;;;;;;8383131;28;20381;-84
2023/03/24 01:23:05;;;;;;;21.35;9.20;;;;;;;;;;8374475;28;20475;-84
2023/03/24 01:27:07;;;;;;;15.35;8.32;;;;;;;;;;8386379;28;20048;-87
2023/03/24 01:31:11;;;;;;;23.95;9.65;;;;;;;;;;8393411;28;20056;-84
2023/03/24 01:35:16;;;;;;;15.82;9.27;;;;;;;;;;8390477;28;20537;-84
2023/03/24 01:39:19;;;;;;;19.13;8.52;;;;;;;;;;8379370;28;20697;-84
2023/03/24 01:43:25;;;;;;;20.60;10.05;;;;;;;;;;8404603;28;20040;-87
2023/03/24 01:47:28;;;;;;;15.88;8.40;;;;;;;;;;8396104;28;20440;-84
2023/03/24 01:51:37;;;;;;;14.80;7.65;;;;;;;;;;8384852;28;20044;-86
2023/03/24 01:55:40;;;;;;;17.92;8.77;;;;;;;;;;8392440;28;20567;-84
2023/03/24 01:59:48;;;;;;;40.33;13.27;;;;;;;;;;8388364;28;20056;-84
2023/03/24 02:03:52;;;;;;;27.98;10.68;;;;;;;;;;8371273;28;20041;-84
2023/03/24 02:08:04;;;;;;;23.05;10.65;;;;;;;;;;8343868;28;20481;-84
2023/03/24 02:12:08;;;;;;;18.52;9.35;;;;;;;;;;8372665;28;20041;-84
2023/03/24 02:16:31;;;;;;;17.48;9.32;;;;;;;;;;8382006;28;20037;-83
2023/03/24 02:20:55;;;;;;;18.27;9.52;;;;;;;;;;8372046;28;20048;-83
2023/03/24 02:25:34;;;;;;;16.40;8.98;;;;;;;;;;8362713;28;20135;-84
2023/03/24 02:30:05;;;;;;;18.92;10.73;;;;;;;;;;8344084;28;20053;-84
2023/03/24 02:34:49;;;;;;;17.10;9.65;;;;;;;;;;8357252;28;20459;-84
2023/03/24 02:39:21;;;;;;;18.05;8.43;;;;;;;;;;8356296;28;20056;-85
2023/03/24 02:43:33;;;;;;;22.90;7.63;;;;;;;;;;8372416;28;20406;-84
2023/03/24 02:47:47;;;;;;;14.88;7.82;;;;;;;;;;8370648;28;20044;-85
2023/03/24 02:51:53;;;;;;;17.42;8.68;;;;;;;;;;8411302;28;20492;-84
2023/03/24 02:56:00;;;;;;;17.00;8.88;;;;;;;;;;8418008;28;20033;-84
2023/03/24 03:00:11;;;;;;;21.05;10.65;;;;;;;;;;8401048;28;20047;-84
2023/03/24 03:04:18;;;;;;;21.65;11.27;;;;;;;;;;8401382;28;20416;-84
2023/03/24 03:08:22;;;;;;;18.40;10.57;;;;;;;;;;8414634;28;20044;-86
2023/03/24 03:12:28;;;;;;;19.88;10.43;;;;;;;;;;8401006;28;20404;-87
2023/03/24 03:16:37;;;;;;;18.25;9.75;;;;;;;;;;8422814;28;20417;-83
2023/03/24 03:20:49;;;;;;;16.90;9.27;;;;;;;;;;8406257;28;20044;-84
2023/03/24 03:24:54;;;;;;;16.98;9.27;;;;;;;;;;8416442;28;20044;-84
2023/03/24 03:29:01;;;;;;;22.20;9.40;;;;;;;;;;8415492;28;20051;-85
2023/03/24 03:33:08;;;;;;;19.50;8.95;;;;;;;;;;8407618;28;20036;-84
2023/03/24 03:37:20;;;;;;;19.35;9.45;;;;;;;;;;8417896;28;20054;-83
2023/03/24 03:41:23;;;;;;;17.23;8.25;;;;;;;;;;8401125;28;20404;-84
2023/03/24 03:45:27;;;;;;;17.23;9.20;;;;;;;;;;8418216;28;20071;-83
2023/03/24 03:49:31;;;;;;;20.05;9.07;;;;;;;;;;8401576;28;20060;-84
2023/03/24 03:53:40;;;;;;;17.85;9.68;;;;;;;;;;8404651;28;20408;-84
2023/03/24 03:57:43;;;;;;;20.75;10.80;;;;;;;;;;8389365;28;20045;-84
2023/03/24 04:01:48;;;;;;;13.05;7.60;;;;;;;;;;8403070;28;20053;-84
2023/03/24 04:05:56;;;;;;;15.60;8.45;;;;;;;;;;8391008;28;20052;-85
2023/03/24 04:10:08;;;;;;;17.45;8.07;;;;;;;;;;8396270;28;20044;-84
2023/03/24 04:14:40;;;;;;;18.05;10.10;;;;;;;;;;8412534;28;20047;-84
2023/03/24 04:18:58;;;;;;;17.98;11.13;;;;;;;;;;8392211;28;20052;-85
2023/03/24 04:23:13;;;;;;;16.92;10.15;;;;;;;;;;8398581;28;20045;-85
2023/03/24 04:27:26;;;;;;;16.42;9.07;;;;;;;;;;8413318;28;20044;-84
2023/03/24 04:31:36;;;;;;;16.75;9.77;;;;;;;;;;8392364;28;20541;-85
2023/03/24 04:35:45;;;;;;;16.63;9.07;;;;;;;;;;8399297;28;20045;-85
2023/03/24 04:39:50;;;;;;;35.10;17.77;;;;;;;;;;8394136;28;20121;-83
2023/03/24 04:43:54;;;;;;;18.17;9.90;;;;;;;;;;8423302;28;20094;-85
2023/03/24 04:48:00;;;;;;;36.03;20.67;;;;;;;;;;8399739;28;20066;-83
2023/03/24 04:52:06;;;;;;;109.20;53.53;;;;;;;;;;8422136;28;20053;-85
2023/03/24 04:56:39;;;;;;;71.80;37.80;;;;;;;;;;8425656;28;20563;-84
2023/03/24 05:00:43;;;;;;;25.73;13.68;;;;;;;;;;8403437;28;20048;-84
2023/03/24 05:04:46;;;;;;;17.17;9.55;;;;;;;;;;8425191;28;20055;-83
2023/03/24 05:08:51;;;;;;;30.65;18.85;;;;;;;;;;8397658;28;20040;-84
2023/03/24 05:12:54;;;;;;;25.23;14.20;;;;;;;;;;8414878;28;20044;-83
2023/03/24 05:16:57;;;;;;;17.45;10.85;;;;;;;;;;8377668;28;20040;-84
2023/03/24 05:21:00;;;;;;;18.27;8.70;;;;;;;;;;8405263;28;20040;-83
2023/03/24 05:25:06;;;;;;;17.92;8.63;;;;;;;;;;8420902;28;20115;-83
2023/03/24 05:29:09;;;;;;;81.20;40.63;;;;;;;;;;8382734;28;20061;-84
2023/03/24 05:33:13;;;;;;;41.38;22.00;;;;;;;;;;8412982;28;20423;-85
2023/03/24 05:37:17;;;;;;;28.00;16.15;;;;;;;;;;8426352;28;20060;-84
2023/03/24 05:41:21;;;;;;;25.60;13.50;;;;;;;;;;8396558;28;20076;-84
2023/03/24 05:45:25;;;;;;;23.27;12.20;;;;;;;;;;8412657;28;20048;-85
2023/03/24 05:49:27;;;;;;;18.30;10.15;;;;;;;;;;8417351;28;20113;-84
2023/03/24 05:53:31;;;;;;;16.00;9.02;;;;;;;;;;8400424;28;20047;-84
2023/03/24 05:57:35;;;;;;;17.55;8.23;;;;;;;;;;8422545;28;20422;-84
2023/03/24 06:01:41;;;;;;;14.63;7.93;;;;;;;;;;8401066;28;20052;-84
2023/03/24 06:05:44;;;;;;;14.52;8.25;;;;;;;;;;8414808;28;20051;-85
2023/03/24 06:09:51;;;;;;;16.38;9.13;;;;;;;;;;8423465;28;20098;-85
2023/03/24 06:13:59;;;;;;;15.25;9.50;;;;;;;;;;8400044;28;20064;-86
2023/03/24 06:18:04;;;;;;;17.92;11.23;;;;;;;;;;8410328;28;20049;-85
2023/03/24 06:22:06;;;;;;;17.60;9.70;;;;;;;;;;8424019;28;20047;-85
2023/03/24 06:26:11;;;;;;;17.67;9.80;;;;;;;;;;8410856;28;20044;-85
2023/03/24 06:30:17;;;;;;;17.13;9.65;;;;;;;;;;8410178;28;20041;-85
2023/03/24 06:34:21;;;;;;;20.10;9.57;;;;;;;;;;8386337;28;20048;-85
2023/03/24 06:38:24;;;;;;;16.90;10.57;;;;;;;;;;8392176;28;20049;-85
2023/03/24 06:42:27;;;;;;;18.10;10.60;;;;;;;;;;8394695;28;20046;-85
2023/03/24 06:46:31;;;;;;;17.83;10.00;;;;;;;;;;8407544;28;20044;-85
2023/03/24 06:50:34;;;;;;;18.65;10.18;;;;;;;;;;8392562;28;20064;-86
2023/03/24 06:54:37;;;;;;;18.17;10.80;;;;;;;;;;8391590;28;20044;-85
2023/03/24 06:58:40;;;;;;;21.08;11.27;;;;;;;;;;8400852;28;20059;-86
2023/03/24 07:02:45;;;;;;;18.63;11.68;;;;;;;;;;8411292;28;20130;-85
2023/03/24 07:06:49;;;;;;;21.05;11.38;;;;;;;;;;8417496;28;20060;-83
2023/03/24 07:10:52;;;;;;;18.77;10.43;;;;;;;;;;8385533;28;20066;-83
2023/03/24 07:14:55;;;;;;;20.58;12.85;;;;;;;;;;8391844;28;20411;-83
2023/03/24 07:19:00;;;;;;;23.80;11.38;;;;;;;;;;8407452;28;20458;-85
2023/03/24 07:23:03;;;;;;;19.05;10.25;;;;;;;;;;8403639;28;20068;-85
2023/03/24 07:27:06;;;;;;;20.77;10.55;;;;;;;;;;8408098;28;20390;-83
2023/03/24 07:31:09;;;;;;;15.88;10.05;;;;;;;;;;8386454;28;20047;-84
2023/03/24 07:35:15;;;;;;;17.42;12.15;;;;;;;;;;8382387;28;20120;-86
2023/03/24 07:39:18;;;;;;;16.30;8.77;;;;;;;;;;8397767;28;20481;-83
2023/03/24 07:43:21;;;;;;;16.60;8.38;;;;;;;;;;8397552;28;20045;-84
2023/03/24 07:47:25;;;;;;;12.23;7.30;;;;;;;;;;8393551;28;20135;-82
2023/03/24 07:51:30;;;;;;;25.95;13.77;;;;;;;;;;8417781;28;20442;-83
2023/03/24 07:55:33;;;;;;;16.73;9.35;;;;;;;;;;8398037;28;20135;-83
2023/03/24 07:59:36;;;;;;;14.40;8.18;;;;;;;;;;8390778;28;20041;-83
2023/03/24 08:03:40;;;;;;;13.60;7.65;;;;;;;;;;8384919;28;20047;-83
2023/03/24 08:07:49;;;;;;;12.70;7.95;;;;;;;;;;8392992;28;20091;-86
2023/03/24 08:11:52;;;;;;;12.77;7.15;;;;;;;;;;8387897;28;20040;-86
2023/03/24 08:15:55;;;;;;;13.82;7.90;;;;;;;;;;8411621;28;20093;-85
2023/03/24 08:19:58;;;;;;;15.02;8.15;;;;;;;;;;8402377;28;20048;-87
2023/03/24 08:24:02;;;;;;;18.90;8.00;;;;;;;;;;8415766;28;20044;-87
2023/03/24 08:28:05;;;;;;;15.23;7.97;;;;;;;;;;8414578;28;20090;-86
2023/03/24 08:32:08;;;;;;;11.60;6.28;;;;;;;;;;8421623;28;20892;-87
2023/03/24 08:36:11;;;;;;;12.80;7.57;;;;;;;;;;8406007;28;20049;-87
2023/03/24 08:40:19;;;;;;;12.07;6.93;;;;;;;;;;8408464;28;20456;-85
2023/03/24 08:44:22;;;;;;;9.50;6.03;;;;;;;;;;8404890;28;20044;-87
2023/03/24 08:48:25;;;;;;;9.55;5.45;;;;;;;;;;8396812;28;20143;-84
2023/03/24 08:52:29;;;;;;;11.38;5.85;;;;;;;;;;8415208;28;20051;-85
2023/03/24 08:56:33;;;;;;;13.80;5.80;;;;;;;;;;8413494;28;20044;-85
2023/03/24 09:00:37;;;;;;;10.20;5.63;;;;;;;;;;8413590;28;20052;-85
2023/03/24 09:04:41;;;;;;;9.15;5.57;;;;;;;;;;8402001;28;20416;-85
2023/03/24 09:08:44;;;;;;;7.43;4.90;;;;;;;;;;8413249;28;20403;-83
2023/03/24 09:12:49;;;;;;;9.73;5.63;;;;;;;;;;8412762;28;20045;-87
2023/03/24 09:16:52;;;;;;;8.98;5.38;;;;;;;;;;8415294;28;20037;-83
2023/03/24 09:20:55;;;;;;;8.75;5.30;;;;;;;;;;8407246;28;20048;-84
2023/03/24 09:24:58;;;;;;;7.50;5.35;;;;;;;;;;8414016;28;20410;-85
2023/03/24 09:29:03;;;;;;;8.55;4.95;;;;;;;;;;8420879;28;20090;-83
2023/03/24 09:33:06;;;;;;;8.75;5.43;;;;;;;;;;8415301;28;20054;-83
2023/03/24 09:37:09;;;;;;;7.30;4.45;;;;;;;;;;8430452;28;20047;-85
2023/03/24 09:41:18;;;;;;;8.60;5.22;;;;;;;;;;8418607;28;20468;-85
2023/03/24 09:45:24;;;;;;;8.70;4.35;;;;;;;;;;8401594;28;20543;-83
2023/03/24 09:49:30;;;;;;;6.82;4.03;;;;;;;;;;8390296;28;20058;-84
2023/03/24 09:53:40;;;;;;;8.50;4.75;;;;;;;;;;8429992;28;20123;-88
2023/03/24 09:57:47;;;;;;;6.05;3.50;;;;;;;;;;8400165;28;20174;-84
2023/03/24 10:01:52;;;;;;;5.63;3.30;;;;;;;;;;8389180;28;20044;-84
2023/03/24 10:06:05;;;;;;;4.78;2.92;;;;;;;;;;8397282;28;20110;-85
2023/03/24 10:10:21;;;;;;;5.38;2.95;;;;;;;;;;8403847;28;20053;-86
2023/03/24 10:14:39;;;;;;;4.28;2.60;;;;;;;;;;8407291;28;20048;-83
2023/03/24 10:18:52;;;;;;;5.38;3.40;;;;;;;;;;8383580;28;20118;-85
2023/03/24 10:23:01;;;;;;;3.97;2.33;;;;;;;;;;8395281;28;20083;-87
2023/03/24 10:27:10;;;;;;;4.88;2.90;;;;;;;;;;8414418;28;20123;-84
2023/03/24 10:31:17;;;;;;;5.63;3.13;;;;;;;;;;8413404;28;20043;-83
2023/03/24 10:35:25;;;;;;;6.57;3.60;;;;;;;;;;8415768;28;20131;-84
2023/03/24 10:39:29;;;;;;;5.43;2.92;;;;;;;;;;8414583;28;20078;-83
2023/03/24 10:43:32;;;;;;;9.35;4.07;;;;;;;;;;8388667;28;20055;-88
2023/03/24 10:47:36;;;;;;;9.93;5.15;;;;;;;;;;8408711;28;20068;-84
2023/03/24 10:51:47;;;;;;;5.90;2.38;;;;;;;;;;8418530;28;20059;-88
2023/03/24 10:55:50;;;;;;;24.90;10.52;;;;;;;;;;8385970;28;20458;-85
2023/03/24 10:59:56;;;;;;;5.80;2.90;;;;;;;;;;8367260;28;20071;-86
2023/03/24 11:04:02;;;;;;;11.73;5.90;;;;;;;;;;8413429;28;20044;-86
2023/03/24 11:08:27;;;;;;;4.00;2.35;;;;;;;;;;8393058;28;20052;-85
2023/03/24 11:12:32;;;;;;;5.63;2.90;;;;;;;;;;8373988;28;20044;-84
2023/03/24 11:16:37;;;;;;;5.97;2.92;;;;;;;;;;8382909;28;20535;-83
2023/03/24 11:20:44;;;;;;;4.95;2.60;;;;;;;;;;8385911;28;20053;-83
2023/03/24 11:24:52;;;;;;;3.63;2.13;;;;;;;;;;8382949;28;20586;-83
2023/03/24 11:28:57;;;;;;;3.63;2.47;;;;;;;;;;8387187;28;20594;-87
2023/03/24 11:33:02;;;;;;;4.85;2.75;;;;;;;;;;8390116;28;20109;-86
2023/03/24 11:37:12;;;;;;;3.78;2.25;;;;;;;;;;8386929;28;20079;-87
2023/03/24 11:41:21;;;;;;;5.45;3.53;;;;;;;;;;8385960;28;20048;-83
2023/03/24 11:45:28;;;;;;;5.88;3.10;;;;;;;;;;8381609;28;20055;-86
2023/03/24 11:49:33;;;;;;;7.38;2.78;;;;;;;;;;8391495;28;20984;-84
2023/03/24 11:53:46;;;;;;;3.97;2.50;;;;;;;;;;8386362;28;20055;-84
2023/03/24 11:57:58;;;;;;;4.55;2.95;;;;;;;;;;8395973;28;20059;-82
2023/03/24 12:02:12;;;;;;;4.68;2.78;;;;;;;;;;8377235;28;20044;-84
2023/03/24 12:06:28;;;;;;;8.35;3.70;;;;;;;;;;8391896;28;20733;-83
2023/03/24 12:10:41;;;;;;;6.82;4.65;;;;;;;;;;8379930;28;20492;-86
2023/03/24 12:14:57;;;;;;;9.10;4.43;;;;;;;;;;8366835;28;20044;-85
2023/03/24 12:19:26;;;;;;;18.23;9.35;;;;;;;;;;8380097;28;20045;-86
2023/03/24 12:23:37;;;;;;;5.97;3.50;;;;;;;;;;8374275;28;20049;-86
2023/03/24 12:27:51;;;;;;;7.72;3.13;;;;;;;;;;8386259;28;20177;-86
2023/03/24 12:32:13;;;;;;;5.72;3.00;;;;;;;;;;8381611;28;20040;-83
2023/03/24 12:36:39;;;;;;;9.90;3.55;;;;;;;;;;8386588;28;20177;-84
2023/03/24 12:41:24;;;;;;;4.10;2.78;;;;;;;;;;8383913;28;20052;-85
2023/03/24 12:45:39;;;;;;;4.32;2.78;;;;;;;;;;8378629;28;20045;-81
2023/03/24 12:49:56;;;;;;;5.00;3.33;;;;;;;;;;8373159;28;20136;-87
2023/03/24 12:54:17;;;;;;;4.78;2.50;;;;;;;;;;8377788;28;20078;-83
2023/03/24 12:58:24;;;;;;;4.57;3.00;;;;;;;;;;8371054;28;20132;-88
2023/03/24 13:02:32;;;;;;;4.05;2.60;;;;;;;;;;8406494;28;20093;-88
2023/03/24 13:06:43;;;;;;;5.57;3.67;;;;;;;;;;8398177;28;20036;-85
2023/03/24 13:10:47;;;;;;;;;;;;;;;;;;8431611;28;20803;-88
2023/03/24 13:14:55;;;;;;;6.03;3.20;;;;;;;;;;8397008;28;20440;-86
2023/03/24 13:19:02;;;;;;;6.82;3.30;;;;;;;;;;8401439;28;20075;-84
2023/03/24 13:23:19;;;;;;;6.05;2.67;;;;;;;;;;8407422;28;20080;-87
2023/03/24 13:27:24;;;;;;;6.43;3.08;;;;;;;;;;8364908;28;20055;-85
2023/03/24 13:31:34;;;;;;;7.13;3.30;;;;;;;;;;8397232;28;20535;-85
2023/03/24 13:35:49;;;;;;;6.00;3.35;;;;;;;;;;8384720;28;20071;-87
2023/03/24 13:39:57;;;;;;;5.05;3.05;;;;;;;;;;8390786;28;20064;-86
2023/03/24 13:44:03;;;;;;;8.15;3.60;;;;;;;;;;8380921;28;20496;-88
2023/03/24 13:48:30;;;;;;;5.80;3.60;;;;;;;;;;8391580;28;20060;-86
2023/03/24 13:52:36;;;;;;;5.85;4.00;;;;;;;;;;8403021;28;20517;-85
2023/03/24 13:56:49;;;;;;;5.43;3.47;;;;;;;;;;8389272;28;20048;-85
2023/03/24 14:01:17;;;;;;;7.15;4.22;;;;;;;;;;8382797;28;20036;-85
2023/03/24 14:05:55;;;;;;;7.22;4.03;;;;;;;;;;8385128;28;20068;-87
2023/03/24 14:09:59;;;;;;;9.48;4.57;;;;;;;;;;8385750;28;20147;-84
2023/03/24 14:14:17;;;;;;;7.82;3.70;;;;;;;;;;8391462;28;20071;-83
2023/03/24 14:18:42;;;;;;;7.32;4.32;;;;;;;;;;8381134;28;20049;-86
2023/03/24 14:22:48;;;;;;;6.53;3.88;;;;;;;;;;8371337;28;20056;-87
2023/03/24 14:26:52;;;;;;;6.22;4.20;;;;;;;;;;8389168;28;20055;-85
2023/03/24 14:31:02;;;;;;;5.95;3.53;;;;;;;;;;8393662;28;20416;-85
2023/03/24 14:35:19;;;;;;;6.03;3.58;;;;;;;;;;8389689;28;20047;-85
2023/03/24 14:39:30;;;;;;;7.18;3.92;;;;;;;;;;8377123;28;20060;-85
2023/03/24 14:43:56;;;;;;;7.82;3.80;;;;;;;;;;8382919;28;20391;-88
2023/03/24 14:48:02;;;;;;;7.03;4.15;;;;;;;;;;8380560;28;20141;-83
2023/03/24 14:52:13;;;;;;;11.68;4.28;;;;;;;;;;8382524;28;20462;-85
2023/03/24 14:56:17;;;;;;;6.57;4.22;;;;;;;;;;8380462;28;20748;-86
2023/03/24 15:00:24;;;;;;;6.50;4.30;;;;;;;;;;8381908;28;20579;-86
2023/03/24 15:04:28;;;;;;;8.60;4.47;;;;;;;;;;8381292;28;20100;-86
2023/03/24 15:08:31;;;;;;;11.38;7.63;;;;;;;;;;8366684;28;20143;-85
2023/03/24 15:12:34;;;;;;;10.85;4.45;;;;;;;;;;8368389;28;20415;-84
2023/03/24 15:16:38;;;;;;;13.23;6.65;;;;;;;;;;8379675;28;20070;-84
2023/03/24 15:20:46;;;;;;;6.15;4.15;;;;;;;;;;8388915;28;20456;-86
2023/03/24 15:24:50;;;;;;;9.93;5.70;;;;;;;;;;8359269;28;20706;-85
2023/03/24 15:28:58;;;;;;;7.47;4.88;;;;;;;;;;8378299;28;20094;-87
2023/03/24 15:33:01;;;;;;;9.13;4.38;;;;;;;;;;8382045;28;20037;-85
2023/03/24 15:37:08;;;;;;;7.38;4.50;;;;;;;;;;8394884;28;20044;-84
2023/03/24 15:41:13;;;;;;;11.13;5.85;;;;;;;;;;8385054;28;20048;-85
2023/03/24 15:45:23;;;;;;;6.95;4.50;;;;;;;;;;8390272;28;20072;-85
2023/03/24 15:49:31;;;;;;;17.23;9.00;;;;;;;;;;8385606;28;20061;-85
2023/03/24 15:53:42;;;;;;;24.40;15.75;;;;;;;;;;8384063;28;20060;-84
2023/03/24 15:57:47;;;;;;;7.80;4.90;;;;;;;;;;8382400;28;20097;-84
2023/03/24 16:01:50;;;;;;;8.85;5.68;;;;;;;;;;8386374;28;20044;-84
2023/03/24 16:05:55;;;;;;;12.65;7.75;;;;;;;;;;8384476;28;20484;-88
2023/03/24 16:10:04;;;;;;;14.38;8.43;;;;;;;;;;8378045;28;20556;-83
2023/03/24 16:14:20;;;;;;;13.80;6.72;;;;;;;;;;8390414;28;20497;-82
2023/03/24 16:18:27;;;;;;;9.65;5.38;;;;;;;;;;8393106;28;20054;-86
2023/03/24 16:22:31;;;;;;;10.10;5.82;;;;;;;;;;8374034;28;20514;-88
2023/03/24 16:26:36;;;;;;;10.05;5.80;;;;;;;;;;8380384;28;20864;-84
2023/03/24 16:30:41;;;;;;;8.35;5.43;;;;;;;;;;8398216;28;20052;-85
2023/03/24 16:34:44;;;;;;;9.52;5.28;;;;;;;;;;8390928;28;20074;-86
2023/03/24 16:38:47;;;;;;;15.55;9.13;;;;;;;;;;8388698;28;20048;-83
2023/03/24 16:42:52;;;;;;;11.32;6.35;;;;;;;;;;8377501;28;20044;-84
2023/03/24 16:46:55;;;;;;;9.10;5.97;;;;;;;;;;8380362;28;20045;-85
2023/03/24 16:50:58;;;;;;;9.90;7.13;;;;;;;;;;8388898;28;20048;-83
2023/03/24 16:55:02;;;;;;;17.45;8.43;;;;;;;;;;8414473;28;20036;-85
2023/03/24 16:59:08;;;;;;;10.70;6.78;;;;;;;;;;8419022;28;20036;-84
2023/03/24 17:03:12;;;;;;;15.32;10.93;;;;;;;;;;8425032;28;20048;-84
2023/03/24 17:07:15;;;;;;;10.75;6.90;;;;;;;;;;8407005;28;20046;-84
2023/03/24 17:11:26;;;;;;;11.15;7.28;;;;;;;;;;8425706;28;20063;-84
2023/03/24 17:15:32;;;;;;;11.95;6.70;;;;;;;;;;8408586;28;20055;-85
2023/03/24 17:19:40;;;;;;;12.23;6.97;;;;;;;;;;8426056;28;20480;-84
2023/03/24 17:23:54;;;;;;;15.90;6.57;;;;;;;;;;8429615;28;20432;-84
2023/03/24 17:28:00;;;;;;;14.68;7.10;;;;;;;;;;8343544;28;20041;-85
2023/03/24 17:32:08;;;;;;;14.77;7.70;;;;;;;;;;8381526;28;20148;-83
2023/03/24 17:36:17;;;;;;;13.25;7.72;;;;;;;;;;8407864;28;20097;-83
2023/03/24 17:40:22;;;;;;;10.02;7.40;;;;;;;;;;8408315;28;20042;-83
2023/03/24 17:44:26;;;;;;;13.73;6.43;;;;;;;;;;8403934;28;20098;-87
2023/03/24 17:48:38;;;;;;;10.07;6.45;;;;;;;;;;8418067;28;20052;-87
2023/03/24 17:52:49;;;;;;;11.07;6.40;;;;;;;;;;8405508;28;20488;-84
2023/03/24 17:56:54;;;;;;;10.85;5.55;;;;;;;;;;8417086;28;20412;-84
2023/03/24 18:01:00;;;;;;;9.50;6.65;;;;;;;;;;8395266;28;20091;-84
2023/03/24 18:05:10;;;;;;;12.25;7.03;;;;;;;;;;8407133;28;20044;-86
2023/03/24 18:09:16;;;;;;;16.52;10.98;;;;;;;;;;8425229;28;20100;-84
2023/03/24 18:13:20;;;;;;;11.77;7.30;;;;;;;;;;8420597;28;20040;-84
2023/03/24 18:17:25;;;;;;;8.68;5.55;;;;;;;;;;8427066;28;20412;-85
2023/03/24 18:21:32;;;;;;;10.02;6.88;;;;;;;;;;8410140;28;20459;-84
2023/03/24 18:25:39;;;;;;;7.55;5.50;;;;;;;;;;8415476;28;20790;-84
2023/03/24 18:29:44;;;;;;;8.38;5.40;;;;;;;;;;8379378;28;20044;-86
2023/03/24 18:33:52;;;;;;;9.50;5.85;;;;;;;;;;8416004;28;20063;-84
2023/03/24 18:37:57;;;;;;;8.88;5.53;;;;;;;;;;8415771;28;20043;-85
2023/03/24 18:42:02;;;;;;;10.50;6.82;;;;;;;;;;8425598;28;20063;-84
2023/03/24 18:46:08;;;;;;;10.35;5.55;;;;;;;;;;8419472;28;20066;-84
2023/03/24 18:50:12;;;;;;;14.43;6.30;;;;;;;;;;8392688;28;20090;-84
2023/03/24 18:54:18;;;;;;;10.95;5.88;;;;;;;;;;8414579;28;20134;-83
2023/03/24 18:58:22;;;;;;;12.90;7.00;;;;;;;;;;8425426;28;20051;-84
2023/03/24 19:02:28;;;;;;;12.38;6.72;;;;;;;;;;8426419;28;20062;-84
2023/03/24 19:06:33;;;;;;;13.45;5.50;;;;;;;;;;8428258;28;20520;-85
2023/03/24 19:10:41;;;;;;;14.77;7.43;;;;;;;;;;8409561;28;20047;-84
2023/03/24 19:14:47;;;;;;;9.98;6.57;;;;;;;;;;8424257;28;20119;-86
2023/03/24 19:18:50;;;;;;;10.82;6.53;;;;;;;;;;8408148;28;20045;-85
2023/03/24 19:22:55;;;;;;;14.60;8.20;;;;;;;;;;8404507;28;20044;-87
2023/03/24 19:27:06;;;;;;;12.40;7.28;;;;;;;;;;8387935;28;20506;-83
2023/03/24 19:31:13;;;;;;;12.52;7.32;;;;;;;;;;8419191;28;20131;-84
2023/03/24 19:35:18;;;;;;;12.52;7.50;;;;;;;;;;8424371;28;20040;-83
2023/03/24 19:39:24;;;;;;;13.25;7.30;;;;;;;;;;8424872;28;20067;-84
2023/03/24 19:43:30;;;;;;;9.48;6.47;;;;;;;;;;8427870;28;20044;-84
2023/03/24 19:47:36;;;;;;;23.23;13.85;;;;;;;;;;8430112;28;20031;-84
2023/03/24 19:51:40;;;;;;;13.73;7.97;;;;;;;;;;8431821;28;20074;-83
2023/03/24 19:55:45;;;;;;;12.90;7.95;;;;;;;;;;8432580;28;20044;-83
2023/03/24 19:59:52;;;;;;;12.68;7.47;;;;;;;;;;8433809;28;20060;-84
2023/03/24 20:03:57;;;;;;;14.70;8.35;;;;;;;;;;8402138;28;20123;-83
2023/03/24 20:08:02;;;;;;;14.40;8.10;;;;;;;;;;8421365;28;20051;-83
2023/03/24 20:12:09;;;;;;;15.25;8.15;;;;;;;;;;8413518;28;20051;-84
2023/03/24 20:16:15;;;;;;;14.18;8.25;;;;;;;;;;8417986;28;20048;-85
2023/03/24 20:20:21;;;;;;;14.07;8.48;;;;;;;;;;8404809;28;20401;-84
2023/03/24 20:24:27;;;;;;;13.20;7.85;;;;;;;;;;8409404;28;20048;-84
2023/03/24 20:28:33;;;;;;;13.57;8.65;;;;;;;;;;8414906;28;20130;-86
2023/03/24 20:32:40;;;;;;;12.93;7.85;;;;;;;;;;8409534;28;20051;-85
2023/03/24 20:36:46;;;;;;;12.73;8.38;;;;;;;;;;8428704;28;20089;-84
2023/03/24 20:41:18;;;;;;;13.88;7.80;;;;;;;;;;8418717;28;20062;-85
2023/03/24 20:45:27;;;;;;;11.98;7.85;;;;;;;;;;8422906;28;20094;-85
2023/03/24 20:49:33;;;;;;;13.35;8.25;;;;;;;;;;8416346;28;20049;-84
2023/03/24 20:53:39;;;;;;;14.57;8.90;;;;;;;;;;8416459;28;20044;-86
2023/03/24 20:57:46;;;;;;;16.63;8.45;;;;;;;;;;8407235;28;20044;-86
2023/03/24 21:01:52;;;;;;;14.02;8.27;;;;;;;;;;8431699;28;20051;-84
2023/03/24 21:05:57;;;;;;;13.43;8.57;;;;;;;;;;8431930;28;20089;-84
2023/03/24 21:10:04;;;;;;;14.68;8.20;;;;;;;;;;8432059;28;20070;-85
2023/03/24 21:14:09;;;;;;;13.70;8.57;;;;;;;;;;8431771;28;20047;-84
2023/03/24 21:18:18;;;;;;;15.10;8.32;;;;;;;;;;8414654;28;20488;-86
2023/03/24 21:22:24;;;;;;;14.77;9.02;;;;;;;;;;8414043;28;20046;-85
2023/03/24 21:26:29;;;;;;;18.85;9.45;;;;;;;;;;8431614;28;20473;-84
2023/03/24 21:30:34;;;;;;;14.98;9.77;;;;;;;;;;8431341;28;20055;-83
2023/03/24 21:34:37;;;;;;;16.50;9.48;;;;;;;;;;8413043;28;20048;-83
2023/03/24 21:38:43;;;;;;;16.38;9.43;;;;;;;;;;8430999;28;20048;-83
2023/03/24 21:42:48;;;;;;;14.35;8.63;;;;;;;;;;8430900;28;20503;-84
2023/03/24 21:46:50;;;;;;;15.27;9.05;;;;;;;;;;8412645;28;20135;-85
2023/03/24 21:50:55;;;;;;;15.90;9.80;;;;;;;;;;8430156;28;20052;-84
2023/03/24 21:54:59;;;;;;;15.73;8.70;;;;;;;;;;8430713;28;20078;-85
2023/03/24 21:59:02;;;;;;;15.57;9.27;;;;;;;;;;8430663;28;20468;-84
2023/03/24 22:03:07;;;;;;;15.43;8.70;;;;;;;;;;8430327;28;20044;-84
2023/03/24 22:07:09;;;;;;;17.73;9.73;;;;;;;;;;8423601;28;20678;-86
2023/03/24 22:11:14;;;;;;;15.90;8.32;;;;;;;;;;8413190;28;20071;-84
2023/03/24 22:15:17;;;;;;;15.02;8.82;;;;;;;;;;8416061;28;20399;-85
2023/03/24 22:19:20;;;;;;;14.65;8.85;;;;;;;;;;8417907;28;20476;-83
2023/03/24 22:23:23;;;;;;;13.35;8.63;;;;;;;;;;8402245;28;20056;-84
2023/03/24 22:27:27;;;;;;;11.93;7.53;;;;;;;;;;8422325;28;20481;-84
2023/03/24 22:31:30;;;;;;;13.85;8.00;;;;;;;;;;8428209;28;20047;-85
2023/03/24 22:35:33;;;;;;;11.85;7.28;;;;;;;;;;8429428;28;20116;-84
2023/03/24 22:39:36;;;;;;;11.43;7.85;;;;;;;;;;8428940;28;20130;-84
2023/03/24 22:43:42;;;;;;;15.55;7.95;;;;;;;;;;8428821;28;20139;-84
2023/03/24 22:47:44;;;;;;;13.07;8.40;;;;;;;;;;8428829;28;20109;-83
2023/03/24 22:51:47;;;;;;;17.10;9.25;;;;;;;;;;8428538;28;20063;-85
2023/03/24 22:55:51;;;;;;;15.10;8.27;;;;;;;;;;8428474;28;20589;-84
2023/03/24 22:59:55;;;;;;;12.43;7.78;;;;;;;;;;8428958;28;20126;-84
2023/03/24 23:03:58;;;;;;;13.10;8.10;;;;;;;;;;8428186;28;20051;-84
2023/03/24 23:08:01;;;;;;;15.13;8.25;;;;;;;;;;8428525;28;20119;-86
2023/03/24 23:12:04;;;;;;;11.88;7.45;;;;;;;;;;8428400;28;20491;-85
2023/03/24 23:16:09;;;;;;;12.88;8.02;;;;;;;;;;8432474;28;20054;-84
2023/03/24 23:20:14;;;;;;;11.63;8.10;;;;;;;;;;8439308;28;20044;-85
2023/03/24 23:24:17;;;;;;;12.18;8.07;;;;;;;;;;8439727;28;20043;-84
2023/03/24 23:28:20;;;;;;;12.57;7.95;;;;;;;;;;8439340;28;20048;-85
2023/03/24 23:32:25;;;;;;;15.00;8.13;;;;;;;;;;8439648;28;20492;-84
2023/03/24 23:36:28;;;;;;;13.15;7.72;;;;;;;;;;8439015;28;20040;-83
2023/03/24 23:40:31;;;;;;;15.18;8.20;;;;;;;;;;8432078;28;20044;-86
2023/03/24 23:44:34;;;;;;;12.40;7.97;;;;;;;;;;8430880;28;20086;-84
2023/03/24 23:48:38;;;;;;;15.40;9.18;;;;;;;;;;8427399;28;20056;-85
2023/03/24 23:52:42;;;;;;;16.65;10.15;;;;;;;;;;8435880;28;20040;-85
2023/03/24 23:56:45;;;;;;;19.85;10.50;;;;;;;;;;8432205;28;20048;-86
